createdAt,value
2022-10-19T00:00:02.468Z,1009.51
2022-10-19T00:00:34.391Z,1009.51
2022-10-19T00:01:06.778Z,1009.31
2022-10-19T00:01:35.066Z,1009.31
2022-10-19T00:01:54.471Z,1009.31
2022-10-19T00:02:26.231Z,1009.31
2022-10-19T00:02:42.968Z,1009.41
2022-10-19T00:03:15.228Z,1009.41
2022-10-19T00:03:35.153Z,1009.41
2022-10-19T00:04:08.851Z,1009.41
2022-10-19T00:04:34.474Z,1009.41
2022-10-19T00:05:06.781Z,1009.21
2022-10-19T00:05:35.081Z,1009.21
2022-10-19T00:05:54.532Z,1009.21
2022-10-19T00:06:26.280Z,1009.21
2022-10-19T00:06:43.099Z,1009.21
2022-10-19T00:07:14.375Z,1009.21
2022-10-19T00:07:35.436Z,1009.41
2022-10-19T00:08:02.271Z,1009.41
2022-10-19T00:08:34.480Z,1009.41
2022-10-19T00:09:06.071Z,1009.62
2022-10-19T00:09:35.083Z,1009.41
2022-10-19T00:09:54.368Z,1009.41
2022-10-19T00:10:30.203Z,1009.41
2022-10-19T00:10:43.026Z,1009.31
2022-10-19T00:11:14.902Z,1009.31
2022-10-19T00:11:35.136Z,1009.31
2022-10-19T00:12:02.611Z,1009.31
2022-10-19T00:12:34.365Z,1009.31
2022-10-19T00:13:06.387Z,1009.31
2022-10-19T00:13:35.331Z,1009.31
2022-10-19T00:13:54.322Z,1009.31
2022-10-19T00:14:26.202Z,1009.31
2022-10-19T00:14:42.992Z,1009.41
2022-10-19T00:15:19.437Z,1009.41
2022-10-19T00:15:35.106Z,1009.31
2022-10-19T00:16:02.356Z,1009.31
2022-10-19T00:16:34.319Z,1009.31
2022-10-19T00:17:06.134Z,1009.51
2022-10-19T00:17:35.652Z,1009.31
2022-10-19T00:17:54.326Z,1009.31
2022-10-19T00:18:26.139Z,1009.31
2022-10-19T00:18:43.026Z,1009.31
2022-10-19T00:19:14.243Z,1009.31
2022-10-19T00:19:35.128Z,1009.21
2022-10-19T00:20:02.365Z,1009.21
2022-10-19T00:20:34.347Z,1009.21
2022-10-19T00:21:06.086Z,1009.11
2022-10-19T00:21:35.286Z,1009.51
2022-10-19T00:21:54.349Z,1009.51
2022-10-19T00:22:26.339Z,1009.51
2022-10-19T00:22:42.981Z,1009.51
2022-10-19T00:23:14.337Z,1009.51
2022-10-19T00:23:35.192Z,1009.41
2022-10-19T00:24:02.239Z,1009.41
2022-10-19T00:24:34.323Z,1009.41
2022-10-19T00:25:06.105Z,1009.51
2022-10-19T00:25:35.363Z,1009.51
2022-10-19T00:25:54.385Z,1009.51
2022-10-19T00:26:31.664Z,1009.51
2022-10-19T00:26:58.184Z,1009.21
2022-10-19T00:27:30.200Z,1009.21
2022-10-19T00:28:02.503Z,1009.41
2022-10-19T00:28:34.457Z,1009.41
2022-10-19T00:29:06.349Z,1009.21
2022-10-19T00:29:35.128Z,1009.31
2022-10-19T00:29:54.312Z,1009.31
2022-10-19T00:30:26.258Z,1009.31
2022-10-19T00:30:43.002Z,1009.21
2022-10-19T00:31:14.311Z,1009.21
2022-10-19T00:31:35.143Z,1009.31
2022-10-19T00:32:02.277Z,1009.31
2022-10-19T00:32:34.878Z,1009.31
2022-10-19T00:33:11.146Z,1009.31
2022-10-19T00:33:35.166Z,1009.21
2022-10-19T00:33:54.371Z,1009.21
2022-10-19T00:34:26.378Z,1009.21
2022-10-19T00:34:43.005Z,1009.21
2022-10-19T00:35:14.258Z,1009.21
2022-10-19T00:35:35.125Z,1009.41
2022-10-19T00:36:02.503Z,1009.41
2022-10-19T00:36:35.083Z,1009.41
2022-10-19T00:37:06.160Z,1009.31
2022-10-19T00:37:35.225Z,1009.41
2022-10-19T00:37:54.307Z,1009.41
2022-10-19T00:38:26.143Z,1009.41
2022-10-19T00:38:42.982Z,1009.41
2022-10-19T00:39:14.250Z,1009.41
2022-10-19T00:39:35.121Z,1009.21
2022-10-19T00:40:02.576Z,1009.21
2022-10-19T00:40:34.240Z,1009.21
2022-10-19T00:41:06.066Z,1009.11
2022-10-19T00:41:36.543Z,1009.31
2022-10-19T00:41:54.357Z,1009.31
2022-10-19T00:42:26.175Z,1009.31
2022-10-19T00:42:58.361Z,1009.11
2022-10-19T00:43:30.171Z,1009.11
2022-10-19T00:44:02.434Z,1009.11
2022-10-19T00:44:35.305Z,1009.11
2022-10-19T00:45:05.978Z,1009.21
2022-10-19T00:45:35.864Z,1009.11
2022-10-19T00:45:54.616Z,1009.11
2022-10-19T00:46:26.081Z,1009.11
2022-10-19T00:46:43.515Z,1009.31
2022-10-19T00:47:14.133Z,1009.31
2022-10-19T00:47:35.185Z,1009.11
2022-10-19T00:48:02.340Z,1009.11
2022-10-19T00:48:34.048Z,1009.11
2022-10-19T00:49:08.424Z,1009.41
2022-10-19T00:49:35.161Z,1009.11
2022-10-19T00:49:54.306Z,1009.11
2022-10-19T00:50:26.062Z,1009.11
2022-10-19T00:50:42.962Z,1009.21
2022-10-19T00:51:14.225Z,1009.21
2022-10-19T00:51:35.252Z,1009.21
2022-10-19T00:52:02.515Z,1009.21
2022-10-19T00:52:34.514Z,1009.21
2022-10-19T00:53:06.098Z,1009.11
2022-10-19T00:53:35.183Z,1009.04
2022-10-19T00:53:54.254Z,1009.04
2022-10-19T00:54:26.108Z,1009.04
2022-10-19T00:54:42.949Z,1009.21
2022-10-19T00:55:14.146Z,1009.21
2022-10-19T00:55:35.186Z,1009.11
2022-10-19T00:56:02.241Z,1009.11
2022-10-19T00:56:34.250Z,1009.11
2022-10-19T00:57:06.354Z,1009.21
2022-10-19T00:57:35.181Z,1009.11
2022-10-19T00:57:54.203Z,1009.11
2022-10-19T00:58:26.094Z,1009.11
2022-10-19T00:58:42.949Z,1009.11
2022-10-19T00:59:14.282Z,1009.11
2022-10-19T00:59:35.204Z,1009.04
2022-10-19T01:00:02.387Z,1009.04
2022-10-19T01:00:34.295Z,1009.04
2022-10-19T01:01:06.651Z,1009.11
2022-10-19T01:01:35.390Z,1009.11
2022-10-19T01:01:54.502Z,1009.11
2022-10-19T01:02:26.246Z,1009.11
2022-10-19T01:02:42.926Z,1009.11
2022-10-19T01:03:19.261Z,1009.11
2022-10-19T01:03:35.196Z,1008.94
2022-10-19T01:04:02.311Z,1008.94
2022-10-19T01:04:34.238Z,1008.94
2022-10-19T01:05:06.074Z,1008.84
2022-10-19T01:05:35.117Z,1009.11
2022-10-19T01:05:54.242Z,1009.11
2022-10-19T01:06:26.048Z,1009.11
2022-10-19T01:06:43.014Z,1009.04
2022-10-19T01:07:14.169Z,1009.04
2022-10-19T01:07:36.033Z,1009.04
2022-10-19T01:08:02.310Z,1009.04
2022-10-19T01:08:34.138Z,1009.04
2022-10-19T01:09:06.062Z,1009.11
2022-10-19T01:09:35.123Z,1009.11
2022-10-19T01:09:54.266Z,1009.11
2022-10-19T01:10:26.076Z,1009.11
2022-10-19T01:10:42.941Z,1008.84
2022-10-19T01:11:19.792Z,1008.84
2022-10-19T01:11:35.176Z,1009.04
2022-10-19T01:12:02.388Z,1009.04
2022-10-19T01:12:35.102Z,1009.04
2022-10-19T01:13:06.040Z,1009.04
2022-10-19T01:13:35.378Z,1008.94
2022-10-19T01:13:54.190Z,1008.94
2022-10-19T01:14:26.068Z,1008.94
2022-10-19T01:14:42.916Z,1009.04
2022-10-19T01:15:14.301Z,1009.04
2022-10-19T01:15:35.409Z,1009.11
2022-10-19T01:16:02.385Z,1009.11
2022-10-19T01:16:34.275Z,1009.11
2022-10-19T01:17:06.059Z,1008.84
2022-10-19T01:17:35.527Z,1009.04
2022-10-19T01:17:59.239Z,1009.04
2022-10-19T01:18:26.066Z,1009.04
2022-10-19T01:18:58.208Z,1008.94
2022-10-19T01:19:30.123Z,1008.94
2022-10-19T01:20:02.501Z,1009.04
2022-10-19T01:20:34.333Z,1009.04
2022-10-19T01:21:06.043Z,1009.11
2022-10-19T01:21:35.552Z,1009.04
2022-10-19T01:21:54.216Z,1009.04
2022-10-19T01:22:26.056Z,1009.04
2022-10-19T01:22:42.954Z,1009.04
2022-10-19T01:23:14.121Z,1009.04
2022-10-19T01:23:35.154Z,1008.94
2022-10-19T01:24:02.278Z,1008.94
2022-10-19T01:24:37.049Z,1008.94
2022-10-19T01:25:06.258Z,1009.04
2022-10-19T01:25:35.231Z,1008.84
2022-10-19T01:25:54.167Z,1008.84
2022-10-19T01:26:26.537Z,1008.84
2022-10-19T01:26:58.035Z,1008.94
2022-10-19T01:27:30.072Z,1008.94
2022-10-19T01:28:02.249Z,1008.94
2022-10-19T01:28:34.191Z,1008.94
2022-10-19T01:29:11.179Z,1008.94
2022-10-19T01:29:35.230Z,1008.74
2022-10-19T01:29:54.310Z,1008.74
2022-10-19T01:30:26.313Z,1008.74
2022-10-19T01:30:42.919Z,1009.04
2022-10-19T01:31:14.142Z,1009.04
2022-10-19T01:31:35.217Z,1008.84
2022-10-19T01:32:02.265Z,1008.84
2022-10-19T01:32:34.207Z,1008.84
2022-10-19T01:33:06.057Z,1008.94
2022-10-19T01:33:35.651Z,1008.74
2022-10-19T01:33:54.220Z,1008.74
2022-10-19T01:34:26.067Z,1008.74
2022-10-19T01:34:57.990Z,1008.94
2022-10-19T01:35:30.221Z,1008.94
2022-10-19T01:36:02.254Z,1008.84
2022-10-19T01:36:34.994Z,1008.84
2022-10-19T01:37:06.281Z,1008.84
2022-10-19T01:37:35.519Z,1009.04
2022-10-19T01:37:54.101Z,1009.04
2022-10-19T01:38:26.061Z,1009.04
2022-10-19T01:38:57.993Z,1008.94
2022-10-19T01:39:30.101Z,1008.94
2022-10-19T01:40:02.352Z,1008.74
2022-10-19T01:40:34.282Z,1008.74
2022-10-19T01:41:06.056Z,1008.84
2022-10-19T01:41:35.632Z,1008.63
2022-10-19T01:41:54.198Z,1008.63
2022-10-19T01:42:25.998Z,1008.63
2022-10-19T01:42:58.103Z,1008.63
2022-10-19T01:43:30.083Z,1008.63
2022-10-19T01:44:02.359Z,1008.74
2022-10-19T01:44:34.129Z,1008.74
2022-10-19T01:45:06.123Z,1008.84
2022-10-19T01:45:35.188Z,1008.94
2022-10-19T01:45:59.250Z,1008.94
2022-10-19T01:46:26.077Z,1008.94
2022-10-19T01:46:43.526Z,1008.63
2022-10-19T01:47:14.063Z,1008.63
2022-10-19T01:47:35.578Z,1008.74
2022-10-19T01:48:02.228Z,1008.74
2022-10-19T01:48:34.119Z,1008.74
2022-10-19T01:49:06.010Z,1008.94
2022-10-19T01:49:35.380Z,1008.84
2022-10-19T01:49:54.113Z,1008.84
2022-10-19T01:50:26.097Z,1008.84
2022-10-19T01:50:58.009Z,1008.74
2022-10-19T01:51:35.142Z,1008.74
2022-10-19T01:52:02.282Z,1008.74
2022-10-19T01:52:34.454Z,1008.74
2022-10-19T01:53:06.046Z,1008.74
2022-10-19T01:53:35.234Z,1008.74
2022-10-19T01:53:54.119Z,1008.74
2022-10-19T01:54:26.044Z,1008.74
2022-10-19T01:54:58.023Z,1008.74
2022-10-19T01:55:30.050Z,1008.74
2022-10-19T01:56:02.262Z,1008.74
2022-10-19T01:56:34.419Z,1008.74
2022-10-19T01:57:11.170Z,1008.63
2022-10-19T01:57:35.234Z,1008.74
2022-10-19T01:57:54.028Z,1008.74
2022-10-19T01:58:26.057Z,1008.74
2022-10-19T01:58:58.004Z,1008.84
2022-10-19T01:59:30.122Z,1008.84
2022-10-19T02:00:02.378Z,1008.84
2022-10-19T02:00:34.302Z,1008.84
2022-10-19T02:01:06.702Z,1008.53
2022-10-19T02:01:35.414Z,1008.63
2022-10-19T02:01:54.025Z,1008.63
2022-10-19T02:02:26.076Z,1008.63
2022-10-19T02:02:58.028Z,1008.74
2022-10-19T02:03:30.095Z,1008.74
2022-10-19T02:04:02.234Z,1008.94
2022-10-19T02:04:34.162Z,1008.94
2022-10-19T02:05:06.492Z,1008.84
2022-10-19T02:05:35.214Z,1008.63
2022-10-19T02:05:54.016Z,1008.63
2022-10-19T02:06:26.032Z,1008.63
2022-10-19T02:06:58.058Z,1008.63
2022-10-19T02:07:30.040Z,1008.63
2022-10-19T02:08:02.311Z,1008.74
2022-10-19T02:08:34.022Z,1008.74
2022-10-19T02:09:06.237Z,1008.74
2022-10-19T02:09:35.368Z,1008.74
2022-10-19T02:09:54.144Z,1008.74
2022-10-19T02:10:26.241Z,1008.74
2022-10-19T02:10:58.012Z,1008.63
2022-10-19T02:11:30.046Z,1008.63
2022-10-19T02:12:02.268Z,1008.74
2022-10-19T02:12:34.260Z,1008.74
2022-10-19T02:13:06.513Z,1008.84
2022-10-19T02:13:35.280Z,1008.74
2022-10-19T02:13:59.126Z,1008.74
2022-10-19T02:14:25.991Z,1008.74
2022-10-19T02:14:57.972Z,1008.74
2022-10-19T02:15:30.164Z,1008.74
2022-10-19T02:16:02.285Z,1008.63
2022-10-19T02:16:34.118Z,1008.63
2022-10-19T02:17:06.112Z,1008.84
2022-10-19T02:17:35.515Z,1008.53
2022-10-19T02:17:54.088Z,1008.53
2022-10-19T02:18:26.019Z,1008.53
2022-10-19T02:18:57.965Z,1008.43
2022-10-19T02:19:35.195Z,1008.43
2022-10-19T02:20:02.334Z,1008.63
2022-10-19T02:20:34.050Z,1008.63
2022-10-19T02:21:06.124Z,1008.53
2022-10-19T02:21:35.311Z,1008.63
2022-10-19T02:21:54.058Z,1008.63
2022-10-19T02:22:26.013Z,1008.63
2022-10-19T02:22:57.991Z,1008.74
2022-10-19T02:23:30.044Z,1008.74
2022-10-19T02:24:02.283Z,1008.43
2022-10-19T02:24:34.044Z,1008.43
2022-10-19T02:25:11.211Z,1008.33
2022-10-19T02:25:35.561Z,1008.43
2022-10-19T02:25:54.223Z,1008.43
2022-10-19T02:26:26.584Z,1008.43
2022-10-19T02:26:58.057Z,1008.53
2022-10-19T02:27:30.063Z,1008.53
2022-10-19T02:28:02.245Z,1008.53
2022-10-19T02:28:34.075Z,1008.53
2022-10-19T02:29:06.113Z,1008.53
2022-10-19T02:29:35.349Z,1008.63
2022-10-19T02:29:54.053Z,1008.63
2022-10-19T02:30:26.077Z,1008.63
2022-10-19T02:30:58.020Z,1008.43
2022-10-19T02:31:30.688Z,1008.43
2022-10-19T02:32:02.236Z,1008.63
2022-10-19T02:32:35.013Z,1008.63
2022-10-19T02:33:06.201Z,1008.63
2022-10-19T02:33:35.341Z,1008.53
2022-10-19T02:33:54.022Z,1008.53
2022-10-19T02:34:26.020Z,1008.53
2022-10-19T02:34:58.038Z,1008.63
2022-10-19T02:35:30.066Z,1008.63
2022-10-19T02:36:02.186Z,1008.63
2022-10-19T02:36:35.431Z,1008.63
2022-10-19T02:37:06.076Z,1008.63
2022-10-19T02:37:54.095Z,1008.43
2022-10-19T02:38:25.973Z,1008.43
2022-10-19T02:38:58.009Z,1008.53
2022-10-19T02:39:30.081Z,1008.53
2022-10-19T02:40:02.191Z,1008.63
2022-10-19T02:40:33.940Z,1008.63
2022-10-19T02:41:06.066Z,1008.43
2022-10-19T02:41:35.949Z,1008.74
2022-10-19T02:41:59.019Z,1008.74
2022-10-19T02:42:25.933Z,1008.74
2022-10-19T02:42:58.118Z,1008.63
2022-10-19T02:43:30.082Z,1008.63
2022-10-19T02:44:02.247Z,1008.53
2022-10-19T02:44:34.211Z,1008.53
2022-10-19T02:45:06.311Z,1008.74
2022-10-19T02:45:35.256Z,1008.63
2022-10-19T02:45:53.994Z,1008.63
2022-10-19T02:46:25.993Z,1008.63
2022-10-19T02:46:59.774Z,1008.43
2022-10-19T02:47:35.405Z,1008.43
2022-10-19T02:48:02.209Z,1008.53
2022-10-19T02:48:34.137Z,1008.53
2022-10-19T02:49:06.102Z,1008.53
2022-10-19T02:49:35.247Z,1008.43
2022-10-19T02:49:54.071Z,1008.43
2022-10-19T02:50:26.152Z,1008.43
2022-10-19T02:50:57.969Z,1008.43
2022-10-19T02:51:30.051Z,1008.43
2022-10-19T02:52:02.908Z,1008.53
2022-10-19T02:52:34.116Z,1008.53
2022-10-19T02:53:06.093Z,1008.33
2022-10-19T02:53:35.242Z,1008.43
2022-10-19T02:53:53.979Z,1008.43
2022-10-19T02:54:25.981Z,1008.43
2022-10-19T02:54:58.184Z,1008.53
2022-10-19T02:55:30.136Z,1008.53
2022-10-19T02:56:02.231Z,1008.43
2022-10-19T02:56:34.040Z,1008.43
2022-10-19T02:57:06.797Z,1008.53
2022-10-19T02:57:35.481Z,1008.43
2022-10-19T02:57:54.171Z,1008.43
2022-10-19T02:58:26.030Z,1008.43
2022-10-19T02:58:58.105Z,1008.63
2022-10-19T02:59:29.994Z,1008.63
2022-10-19T03:00:02.374Z,1008.23
2022-10-19T03:00:34.412Z,1008.23
2022-10-19T03:01:06.954Z,1008.53
2022-10-19T03:01:35.509Z,1008.74
2022-10-19T03:01:54.110Z,1008.74
2022-10-19T03:02:25.962Z,1008.74
2022-10-19T03:02:58.004Z,1008.53
2022-10-19T03:03:29.995Z,1008.53
2022-10-19T03:04:02.226Z,1008.33
2022-10-19T03:04:34.727Z,1008.33
2022-10-19T03:05:06.211Z,1008.53
2022-10-19T03:05:35.541Z,1008.43
2022-10-19T03:05:54.054Z,1008.43
2022-10-19T03:06:26.410Z,1008.43
2022-10-19T03:06:42.953Z,1008.63
2022-10-19T03:07:14.824Z,1008.63
2022-10-19T03:07:35.504Z,1008.43
2022-10-19T03:08:02.273Z,1008.43
2022-10-19T03:08:34.397Z,1008.43
2022-10-19T03:09:06.137Z,1008.63
2022-10-19T03:09:35.368Z,1008.43
2022-10-19T03:09:53.961Z,1008.43
2022-10-19T03:10:26.029Z,1008.43
2022-10-19T03:10:43.026Z,1008.63
2022-10-19T03:11:13.953Z,1008.63
2022-10-19T03:11:35.390Z,1008.74
2022-10-19T03:12:02.444Z,1008.74
2022-10-19T03:12:34.087Z,1008.74
2022-10-19T03:13:06.136Z,1008.63
2022-10-19T03:13:35.379Z,1008.43
2022-10-19T03:13:54.111Z,1008.43
2022-10-19T03:14:25.973Z,1008.43
2022-10-19T03:14:57.999Z,1008.43
2022-10-19T03:15:30.095Z,1008.43
2022-10-19T03:16:02.264Z,1008.53
2022-10-19T03:16:34.265Z,1008.53
2022-10-19T03:17:06.045Z,1008.33
2022-10-19T03:17:36.047Z,1008.74
2022-10-19T03:17:54.063Z,1008.74
2022-10-19T03:18:26.148Z,1008.74
2022-10-19T03:18:42.962Z,1008.33
2022-10-19T03:19:13.981Z,1008.33
2022-10-19T03:19:35.257Z,1008.43
2022-10-19T03:20:02.553Z,1008.43
2022-10-19T03:20:34.040Z,1008.43
2022-10-19T03:21:06.008Z,1008.33
2022-10-19T03:21:35.375Z,1008.33
2022-10-19T03:21:53.971Z,1008.33
2022-10-19T03:22:26.684Z,1008.33
2022-10-19T03:22:58.040Z,1008.43
2022-10-19T03:23:30.208Z,1008.43
2022-10-19T03:24:02.379Z,1008.53
2022-10-19T03:24:34.155Z,1008.53
2022-10-19T03:25:06.084Z,1008.43
2022-10-19T03:25:35.220Z,1008.43
2022-10-19T03:25:53.978Z,1008.43
2022-10-19T03:26:25.961Z,1008.43
2022-10-19T03:26:58.069Z,1008.33
2022-10-19T03:27:30.695Z,1008.33
2022-10-19T03:28:02.314Z,1008.43
2022-10-19T03:28:34.063Z,1008.43
2022-10-19T03:29:06.102Z,1008.43
2022-10-19T03:29:35.288Z,1008.23
2022-10-19T03:29:53.999Z,1008.23
2022-10-19T03:30:26.069Z,1008.23
2022-10-19T03:30:57.958Z,1008.43
2022-10-19T03:31:30.177Z,1008.43
2022-10-19T03:32:02.378Z,1008.53
2022-10-19T03:32:34.830Z,1008.53
2022-10-19T03:33:06.048Z,1008.43
2022-10-19T03:33:35.689Z,1008.43
2022-10-19T03:33:53.980Z,1008.43
2022-10-19T03:34:25.981Z,1008.43
2022-10-19T03:34:58.009Z,1008.33
2022-10-19T03:35:29.937Z,1008.33
2022-10-19T03:36:02.251Z,1008.23
2022-10-19T03:36:34.690Z,1008.23
2022-10-19T03:37:06.766Z,1008.63
2022-10-19T03:37:36.112Z,1008.23
2022-10-19T03:37:53.943Z,1008.23
2022-10-19T03:38:25.977Z,1008.23
2022-10-19T03:38:43.041Z,1008.53
2022-10-19T03:39:14.015Z,1008.53
2022-10-19T03:39:35.552Z,1008.33
2022-10-19T03:40:02.364Z,1008.33
2022-10-19T03:40:34.029Z,1008.33
2022-10-19T03:41:06.047Z,1008.33
2022-10-19T03:41:36.060Z,1008.23
2022-10-19T03:41:53.949Z,1008.23
2022-10-19T03:42:25.973Z,1008.23
2022-10-19T03:42:58.539Z,1008.23
2022-10-19T03:43:29.989Z,1008.23
2022-10-19T03:44:02.416Z,1008.33
2022-10-19T03:44:39.018Z,1008.33
2022-10-19T03:45:06.127Z,1008.53
2022-10-19T03:45:35.248Z,1008.53
2022-10-19T03:45:53.982Z,1008.53
2022-10-19T03:46:26.151Z,1008.53
2022-10-19T03:46:43.065Z,1008.33
2022-10-19T03:47:13.964Z,1008.33
2022-10-19T03:47:35.493Z,1008.43
2022-10-19T03:48:03.018Z,1008.43
2022-10-19T03:48:34.443Z,1008.43
2022-10-19T03:49:11.306Z,1008.53
2022-10-19T03:49:38.059Z,1008.43
2022-10-19T03:49:53.947Z,1008.43
2022-10-19T03:50:26.015Z,1008.43
2022-10-19T03:50:43.033Z,1008.33
2022-10-19T03:51:13.972Z,1008.33
2022-10-19T03:51:35.265Z,1008.33
2022-10-19T03:52:02.238Z,1008.33
2022-10-19T03:52:34.408Z,1008.33
2022-10-19T03:53:06.820Z,1008.43
2022-10-19T03:53:35.258Z,1008.33
2022-10-19T03:53:54.007Z,1008.33
2022-10-19T03:54:27.420Z,1008.33
2022-10-19T03:54:43.569Z,1008.43
2022-10-19T03:55:13.951Z,1008.43
2022-10-19T03:55:35.343Z,1008.33
2022-10-19T03:56:02.603Z,1008.33
2022-10-19T03:56:34.018Z,1008.33
2022-10-19T03:57:06.253Z,1008.33
2022-10-19T03:57:35.793Z,1008.63
2022-10-19T03:57:54.129Z,1008.63
2022-10-19T03:58:26.112Z,1008.63
2022-10-19T03:58:58.271Z,1008.63
2022-10-19T03:59:30.173Z,1008.63
2022-10-19T04:00:02.450Z,1008.43
2022-10-19T04:00:34.039Z,1008.43
2022-10-19T04:01:06.276Z,1008.43
2022-10-19T04:01:35.178Z,1008.33
2022-10-19T04:01:53.951Z,1008.33
2022-10-19T04:02:26.059Z,1008.33
2022-10-19T04:02:58.404Z,1008.53
2022-10-19T04:03:30.190Z,1008.53
2022-10-19T04:04:02.218Z,1008.63
2022-10-19T04:04:34.061Z,1008.63
2022-10-19T04:05:06.032Z,1008.43
2022-10-19T04:05:35.251Z,1008.13
2022-10-19T04:05:53.997Z,1008.13
2022-10-19T04:06:26.321Z,1008.13
2022-10-19T04:07:02.997Z,1008.43
2022-10-19T04:07:29.986Z,1008.43
2022-10-19T04:08:02.148Z,1008.23
2022-10-19T04:08:34.223Z,1008.23
2022-10-19T04:09:06.011Z,1008.33
2022-10-19T04:09:35.252Z,1008.33
2022-10-19T04:09:53.923Z,1008.33
2022-10-19T04:10:25.918Z,1008.33
2022-10-19T04:10:57.966Z,1008.33
2022-10-19T04:11:29.997Z,1008.33
2022-10-19T04:12:02.066Z,1008.43
2022-10-19T04:12:39.137Z,1008.43
2022-10-19T04:13:06.372Z,1008.13
2022-10-19T04:13:35.188Z,1008.23
2022-10-19T04:13:53.934Z,1008.23
2022-10-19T04:14:32.136Z,1008.23
2022-10-19T04:14:58.090Z,1008.33
2022-10-19T04:15:30.079Z,1008.33
2022-10-19T04:16:02.137Z,1008.33
2022-10-19T04:16:33.978Z,1008.33
2022-10-19T04:17:06.179Z,1008.43
2022-10-19T04:17:35.487Z,1008.33
2022-10-19T04:17:53.976Z,1008.33
2022-10-19T04:18:26.733Z,1008.33
2022-10-19T04:18:43.005Z,1008.23
2022-10-19T04:19:13.958Z,1008.23
2022-10-19T04:19:35.216Z,1008.23
2022-10-19T04:20:02.280Z,1008.23
2022-10-19T04:20:33.974Z,1008.23
2022-10-19T04:21:06.046Z,1008.33
2022-10-19T04:21:35.692Z,1008.13
2022-10-19T04:21:53.974Z,1008.13
2022-10-19T04:22:26.045Z,1008.13
2022-10-19T04:22:58.042Z,1008.33
2022-10-19T04:23:31.419Z,1008.33
2022-10-19T04:24:02.244Z,1008.13
2022-10-19T04:24:33.942Z,1008.13
2022-10-19T04:25:06.166Z,1008.43
2022-10-19T04:25:35.853Z,1008.13
2022-10-19T04:25:54.042Z,1008.13
2022-10-19T04:26:25.968Z,1008.13
2022-10-19T04:26:57.918Z,1008.33
2022-10-19T04:27:30.015Z,1008.33
2022-10-19T04:28:02.258Z,1008.23
2022-10-19T04:28:35.912Z,1008.23
2022-10-19T04:29:06.092Z,1008.23
2022-10-19T04:29:35.200Z,1008.23
2022-10-19T04:29:53.926Z,1008.23
2022-10-19T04:30:26.060Z,1008.23
2022-10-19T04:30:57.873Z,1008.33
2022-10-19T04:31:29.943Z,1008.33
2022-10-19T04:32:02.410Z,1008.23
2022-10-19T04:32:34.117Z,1008.23
2022-10-19T04:33:06.077Z,1008.33
2022-10-19T04:33:35.482Z,1008.13
2022-10-19T04:33:55.712Z,1008.13
2022-10-19T04:34:26.153Z,1008.13
2022-10-19T04:35:03.388Z,1008.13
2022-10-19T04:35:30.356Z,1008.13
2022-10-19T04:36:02.181Z,1008.23
2022-10-19T04:36:34.180Z,1008.23
2022-10-19T04:37:06.287Z,1008.33
2022-10-19T04:37:36.571Z,1008.23
2022-10-19T04:37:53.941Z,1008.23
2022-10-19T04:38:25.969Z,1008.23
2022-10-19T04:38:58.809Z,1008.33
2022-10-19T04:39:30.085Z,1008.33
2022-10-19T04:40:02.381Z,1008.13
2022-10-19T04:40:39.330Z,1008.13
2022-10-19T04:41:06.068Z,1008.13
2022-10-19T04:41:35.553Z,1008.23
2022-10-19T04:41:54.039Z,1008.23
2022-10-19T04:42:26.005Z,1008.23
2022-10-19T04:42:57.925Z,1008.33
2022-10-19T04:43:29.955Z,1008.33
2022-10-19T04:44:03.064Z,1008.33
2022-10-19T04:44:34.034Z,1008.33
2022-10-19T04:45:06.311Z,1008.13
2022-10-19T04:45:35.246Z,1008.23
2022-10-19T04:45:53.945Z,1008.23
2022-10-19T04:46:26.101Z,1008.23
2022-10-19T04:46:43.125Z,1008.23
2022-10-19T04:47:13.927Z,1008.23
2022-10-19T04:47:35.406Z,1008.43
2022-10-19T04:48:02.272Z,1008.43
2022-10-19T04:48:33.947Z,1008.43
2022-10-19T04:49:06.457Z,1008.43
2022-10-19T04:49:35.324Z,1008.53
2022-10-19T04:49:53.961Z,1008.53
2022-10-19T04:50:25.971Z,1008.53
2022-10-19T04:50:47.985Z,1008.33
2022-10-19T04:51:13.899Z,1008.33
2022-10-19T04:51:35.350Z,1008.33
2022-10-19T04:52:02.149Z,1008.33
2022-10-19T04:52:33.929Z,1008.33
2022-10-19T04:53:06.077Z,1008.33
2022-10-19T04:53:35.970Z,1008.13
2022-10-19T04:53:56.911Z,1008.13
2022-10-19T04:54:26.927Z,1008.13
2022-10-19T04:54:57.909Z,1008.43
2022-10-19T04:55:30.018Z,1008.43
2022-10-19T04:56:02.245Z,1008.43
2022-10-19T04:56:33.942Z,1008.43
2022-10-19T04:57:06.037Z,1008.43
2022-10-19T04:57:35.580Z,1008.53
2022-10-19T04:57:53.930Z,1008.53
2022-10-19T04:58:26.191Z,1008.53
2022-10-19T04:58:57.923Z,1008.43
2022-10-19T04:59:29.981Z,1008.43
2022-10-19T05:00:02.310Z,1008.53
2022-10-19T05:00:34.077Z,1008.53
2022-10-19T05:01:07.090Z,1008.33
2022-10-19T05:01:35.164Z,1008.33
2022-10-19T05:01:53.924Z,1008.33
2022-10-19T05:02:25.945Z,1008.33
2022-10-19T05:03:03.254Z,1008.33
2022-10-19T05:03:29.887Z,1008.33
2022-10-19T05:04:02.194Z,1008.23
2022-10-19T05:04:33.965Z,1008.23
2022-10-19T05:05:06.013Z,1008.43
2022-10-19T05:05:35.213Z,1008.23
2022-10-19T05:05:53.960Z,1008.23
2022-10-19T05:06:26.066Z,1008.23
2022-10-19T05:06:57.933Z,1008.43
2022-10-19T05:07:30.912Z,1008.43
2022-10-19T05:08:02.401Z,1008.53
2022-10-19T05:08:39.003Z,1008.53
2022-10-19T05:09:05.974Z,1008.53
2022-10-19T05:09:35.190Z,1008.43
2022-10-19T05:10:03.436Z,1008.43
2022-10-19T05:10:26.022Z,1008.43
2022-10-19T05:10:57.948Z,1008.43
2022-10-19T05:11:30.200Z,1008.43
2022-10-19T05:12:02.167Z,1008.43
2022-10-19T05:12:33.967Z,1008.43
2022-10-19T05:13:06.588Z,1008.33
2022-10-19T05:13:35.145Z,1008.02
2022-10-19T05:13:53.917Z,1008.02
2022-10-19T05:14:43.145Z,1008.23
2022-10-19T05:15:13.999Z,1008.23
2022-10-19T05:15:35.243Z,1008.43
2022-10-19T05:16:02.140Z,1008.43
2022-10-19T05:16:33.900Z,1008.43
2022-10-19T05:17:06.197Z,1008.33
2022-10-19T05:17:35.583Z,1008.33
2022-10-19T05:17:53.888Z,1008.33
2022-10-19T05:18:26.032Z,1008.33
2022-10-19T05:18:48.030Z,1008.33
2022-10-19T05:19:13.934Z,1008.33
2022-10-19T05:19:35.228Z,1008.13
2022-10-19T05:20:02.347Z,1008.13
2022-10-19T05:20:33.919Z,1008.13
2022-10-19T05:21:06.056Z,1008.13
2022-10-19T05:21:35.151Z,1008.33
2022-10-19T05:21:53.968Z,1008.33
2022-10-19T05:22:26.017Z,1008.33
2022-10-19T05:22:57.870Z,1008.13
2022-10-19T05:23:29.989Z,1008.13
2022-10-19T05:24:02.176Z,1008.23
2022-10-19T05:24:34.294Z,1008.23
2022-10-19T05:25:06.305Z,1008.13
2022-10-19T05:25:35.165Z,1008.13
2022-10-19T05:25:53.913Z,1008.13
2022-10-19T05:26:26.063Z,1008.13
2022-10-19T05:26:43.395Z,1008.13
2022-10-19T05:27:14.360Z,1008.13
2022-10-19T05:27:36.153Z,1008.33
2022-10-19T05:28:02.145Z,1008.33
2022-10-19T05:28:34.012Z,1008.33
2022-10-19T05:29:06.173Z,1008.23
2022-10-19T05:29:35.243Z,1008.13
2022-10-19T05:29:53.939Z,1008.13
2022-10-19T05:30:26.040Z,1008.13
2022-10-19T05:30:46.710Z,1008.23
2022-10-19T05:31:13.946Z,1008.23
2022-10-19T05:31:35.179Z,1008.13
2022-10-19T05:32:02.197Z,1008.13
2022-10-19T05:32:33.970Z,1008.13
2022-10-19T05:33:06.222Z,1008.23
2022-10-19T05:33:35.252Z,1008.13
2022-10-19T05:33:53.976Z,1008.13
2022-10-19T05:34:26.034Z,1008.13
2022-10-19T05:34:43.156Z,1008.02
2022-10-19T05:35:16.392Z,1008.02
2022-10-19T05:35:35.298Z,1008.13
2022-10-19T05:36:02.141Z,1008.13
2022-10-19T05:36:39.040Z,1008.13
2022-10-19T05:37:08.514Z,1008.13
2022-10-19T05:37:36.158Z,1008.13
2022-10-19T05:37:53.902Z,1008.13
2022-10-19T05:38:26.078Z,1008.13
2022-10-19T05:38:42.987Z,1008.13
2022-10-19T05:39:13.864Z,1008.13
2022-10-19T05:39:35.208Z,1008.13
2022-10-19T05:40:02.261Z,1008.13
2022-10-19T05:40:34.350Z,1008.13
2022-10-19T05:41:06.104Z,1008.23
2022-10-19T05:41:35.112Z,1007.92
2022-10-19T05:41:53.917Z,1007.92
2022-10-19T05:42:26.053Z,1007.92
2022-10-19T05:42:43.023Z,1008.02
2022-10-19T05:43:18.957Z,1008.02
2022-10-19T05:43:35.174Z,1008.13
2022-10-19T05:44:02.085Z,1008.13
2022-10-19T05:44:33.982Z,1008.13
2022-10-19T05:45:06.200Z,1008.13